createdAt,value
2022-11-07T00:00:53.271Z,97959.81
2022-11-07T00:03:23.301Z,97964.28
2022-11-07T00:05:55.032Z,97958.63
2022-11-07T00:08:31.907Z,97964.16
2022-11-07T00:11:07.331Z,97983.56
2022-11-07T00:13:37.832Z,97987.31
2022-11-07T00:16:11.806Z,97993.19
2022-11-07T00:18:41.950Z,97995.31
2022-11-07T00:21:13.584Z,97981.75
2022-11-07T00:23:44.741Z,97991.41
2022-11-07T00:26:18.677Z,97997.75
2022-11-07T00:28:49.413Z,98003.47
2022-11-07T00:31:20.993Z,98004.09
2022-11-07T00:33:51.054Z,98005.00
2022-11-07T00:36:23.662Z,98010.16
2022-11-07T00:38:54.047Z,98018.28
2022-11-07T00:41:27.069Z,98017.75
2022-11-07T00:43:57.356Z,98012.50
2022-11-07T00:46:27.684Z,98022.66
2022-11-07T00:48:57.759Z,98030.53
2022-11-07T00:51:31.098Z,98028.44
2022-11-07T00:54:01.195Z,98036.75
2022-11-07T00:56:33.942Z,98038.25
2022-11-07T00:59:03.983Z,98041.31
2022-11-07T01:01:36.607Z,98055.16
2022-11-07T01:04:19.479Z,98049.00
2022-11-07T01:06:50.177Z,98054.34
2022-11-07T01:09:23.066Z,98052.47
2022-11-07T01:11:55.746Z,98047.94
2022-11-07T01:14:25.866Z,98045.91
2022-11-07T01:16:55.985Z,98049.63
2022-11-07T01:19:26.132Z,98040.69
2022-11-07T01:21:56.530Z,98049.19
2022-11-07T01:24:26.580Z,98040.44
2022-11-07T01:26:59.193Z,98041.84
2022-11-07T01:29:29.685Z,98029.38
2022-11-07T01:31:59.750Z,98018.72
2022-11-07T01:34:29.842Z,98031.50
2022-11-07T01:36:59.838Z,98035.09
2022-11-07T01:39:29.884Z,98032.47
2022-11-07T01:42:02.557Z,98030.53
2022-11-07T01:44:57.381Z,98034.72
2022-11-07T01:47:32.934Z,98027.28
2022-11-07T01:50:04.718Z,98018.63
2022-11-07T01:52:38.991Z,98026.66
2022-11-07T01:55:15.756Z,98025.44
2022-11-07T01:57:54.054Z,98031.28
2022-11-07T02:00:26.688Z,98024.72
2022-11-07T02:03:03.974Z,98042.13
2022-11-07T02:05:40.546Z,98039.88
2022-11-07T02:08:13.392Z,98031.00
2022-11-07T02:10:45.179Z,98030.66
2022-11-07T02:13:28.411Z,98021.13
2022-11-07T02:15:59.399Z,98027.00
2022-11-07T02:18:32.278Z,98028.88
2022-11-07T02:21:11.387Z,98027.91
2022-11-07T02:23:52.000Z,98024.06
2022-11-07T02:26:26.516Z,98017.84
2022-11-07T02:29:00.148Z,98017.38
2022-11-07T02:31:30.233Z,98025.25
2022-11-07T02:34:00.214Z,98029.09
2022-11-07T02:36:30.641Z,98027.06
2022-11-07T02:39:02.679Z,98029.91
2022-11-07T02:41:37.988Z,98031.38
2022-11-07T02:44:13.961Z,98025.81
2022-11-07T02:46:44.470Z,98027.88
2022-11-07T02:49:14.566Z,98034.84
2022-11-07T02:51:44.581Z,98033.19
2022-11-07T02:54:14.705Z,98033.06
2022-11-07T02:56:47.353Z,98025.28
2022-11-07T02:59:17.327Z,98030.16
2022-11-07T03:01:47.501Z,98028.34
2022-11-07T03:04:17.621Z,98031.13
2022-11-07T03:06:47.715Z,98031.38
2022-11-07T03:09:18.007Z,98031.59
2022-11-07T03:11:50.633Z,98034.00
2022-11-07T03:14:20.755Z,98029.75
2022-11-07T03:16:50.819Z,98026.22
2022-11-07T03:19:20.891Z,98022.31
2022-11-07T03:21:52.954Z,98025.84
2022-11-07T03:24:23.014Z,98032.09
2022-11-07T03:26:55.648Z,98028.19
2022-11-07T03:29:25.724Z,98027.41
2022-11-07T03:31:55.899Z,98033.28
2022-11-07T03:34:26.497Z,98031.97
2022-11-07T03:36:56.523Z,98035.03
2022-11-07T03:39:26.513Z,98035.78
2022-11-07T03:41:59.239Z,98026.66
2022-11-07T03:44:29.275Z,98037.28
2022-11-07T03:46:59.220Z,98040.28
2022-11-07T03:49:29.370Z,98043.84
2022-11-07T03:52:00.011Z,98044.25
2022-11-07T03:54:30.016Z,98045.69
2022-11-07T03:57:02.709Z,98048.50
2022-11-07T03:59:32.736Z,98051.41
2022-11-07T04:02:02.976Z,98054.53
2022-11-07T04:04:33.095Z,98045.91
2022-11-07T04:07:03.073Z,98050.97
2022-11-07T04:09:33.055Z,98053.53
2022-11-07T04:12:18.126Z,98063.88
2022-11-07T04:15:00.969Z,98064.66
2022-11-07T04:17:33.082Z,98061.88
2022-11-07T04:20:03.144Z,98061.22
2022-11-07T04:22:33.239Z,98075.69
2022-11-07T04:25:03.305Z,98066.63
2022-11-07T04:27:46.950Z,98062.50
2022-11-07T04:30:23.855Z,98070.13
2022-11-07T04:32:56.247Z,98061.50
2022-11-07T04:35:29.217Z,98069.50
2022-11-07T04:37:59.447Z,98066.34
2022-11-07T04:40:30.382Z,98067.63
2022-11-07T04:43:08.874Z,98067.72
2022-11-07T04:45:39.472Z,98061.56
2022-11-07T04:48:12.756Z,98068.84
2022-11-07T04:50:43.806Z,98058.91
2022-11-07T04:53:16.612Z,98077.38
2022-11-07T04:55:47.470Z,98075.09
2022-11-07T04:58:20.087Z,98081.84
2022-11-07T05:00:50.102Z,98093.78
2022-11-07T05:03:20.301Z,98091.09
2022-11-07T05:05:50.424Z,98082.41
2022-11-07T05:08:20.457Z,98084.97
2022-11-07T05:10:50.457Z,98078.69
2022-11-07T05:13:23.276Z,98082.97
2022-11-07T05:15:53.799Z,98079.09
2022-11-07T05:18:25.161Z,98079.66
2022-11-07T05:20:55.169Z,98086.69
2022-11-07T05:23:27.880Z,98084.41
2022-11-07T05:25:58.377Z,98083.38
2022-11-07T05:28:39.261Z,98095.91
2022-11-07T05:31:11.899Z,98088.97
2022-11-07T05:33:41.894Z,98081.09
2022-11-07T05:36:14.327Z,98096.16
2022-11-07T05:38:46.480Z,98092.91
2022-11-07T05:41:19.560Z,98086.91
2022-11-07T05:43:52.367Z,98088.31
2022-11-07T05:46:22.382Z,98086.00
2022-11-07T05:48:59.614Z,98092.50
2022-11-07T05:51:30.836Z,98099.88
2022-11-07T05:54:00.908Z,98102.84
2022-11-07T05:56:31.212Z,98098.66
2022-11-07T05:59:04.275Z,98098.78
2022-11-07T06:01:34.589Z,98098.00
2022-11-07T06:04:06.665Z,98105.25
2022-11-07T06:06:36.853Z,98107.97
2022-11-07T06:09:07.214Z,98112.72
2022-11-07T06:11:37.217Z,98117.44
2022-11-07T06:14:10.109Z,98117.06
2022-11-07T06:16:40.363Z,98116.44
2022-11-07T06:19:10.412Z,98108.09
2022-11-07T06:21:40.749Z,98108.72
2022-11-07T06:24:15.385Z,98106.25
2022-11-07T06:26:45.582Z,98100.38
2022-11-07T06:29:18.167Z,98099.53
2022-11-07T06:31:48.310Z,98098.38
2022-11-07T06:34:18.294Z,98113.13
2022-11-07T06:36:58.643Z,98121.28
2022-11-07T06:39:31.765Z,98113.75
2022-11-07T06:42:01.805Z,98110.59
2022-11-07T06:44:34.433Z,98111.38
2022-11-07T06:47:04.489Z,98120.31
2022-11-07T06:49:34.509Z,98117.31
2022-11-07T06:52:05.204Z,98113.84
2022-11-07T06:54:35.352Z,98117.56
2022-11-07T06:57:05.454Z,98117.53
2022-11-07T06:59:38.292Z,98121.38
2022-11-07T07:02:08.609Z,98125.38
2022-11-07T07:04:39.211Z,98133.63
2022-11-07T07:07:09.308Z,98126.47
2022-11-07T07:09:39.336Z,98135.31
2022-11-07T07:12:10.228Z,98144.13
2022-11-07T07:14:42.932Z,98146.59
2022-11-07T07:17:13.080Z,98144.28
2022-11-07T07:19:43.144Z,98144.47
2022-11-07T07:22:15.658Z,98154.81
2022-11-07T07:24:46.046Z,98151.81
2022-11-07T07:27:16.173Z,98150.31
2022-11-07T07:29:48.918Z,98159.59
2022-11-07T07:32:19.040Z,98162.59
2022-11-07T07:34:49.133Z,98169.91
2022-11-07T07:37:19.179Z,98165.25
2022-11-07T07:39:49.283Z,98169.41
2022-11-07T07:42:19.337Z,98170.25
2022-11-07T07:44:51.990Z,98166.16
2022-11-07T07:47:22.274Z,98167.97
2022-11-07T07:49:52.311Z,98174.44
2022-11-07T07:52:23.027Z,98170.72
2022-11-07T07:54:54.361Z,98167.00
2022-11-07T07:57:24.567Z,98169.53
2022-11-07T07:59:57.256Z,98162.03
2022-11-07T08:02:27.340Z,98168.47
2022-11-07T08:04:57.869Z,98175.28
2022-11-07T08:07:28.219Z,98177.19
2022-11-07T08:10:02.031Z,98176.94
2022-11-07T08:12:32.458Z,98173.47
2022-11-07T08:15:05.183Z,98171.06
2022-11-07T08:17:37.368Z,98177.69
2022-11-07T08:20:11.006Z,98174.88
2022-11-07T08:22:41.897Z,98179.94
2022-11-07T08:25:14.492Z,98180.94
2022-11-07T08:27:44.559Z,98184.59
2022-11-07T08:30:18.235Z,98189.41
2022-11-07T08:32:48.488Z,98184.38
2022-11-07T08:35:18.908Z,98187.44
2022-11-07T08:37:48.961Z,98191.59
2022-11-07T08:40:19.115Z,98190.28
2022-11-07T08:42:49.251Z,98189.16
2022-11-07T08:45:22.011Z,98192.31
2022-11-07T08:47:52.014Z,98186.47
2022-11-07T08:50:22.167Z,98189.66
2022-11-07T08:52:52.452Z,98187.88
2022-11-07T08:55:22.479Z,98184.28
2022-11-07T08:57:52.603Z,98180.88
2022-11-07T09:00:25.617Z,98175.28
2022-11-07T09:05:45.900Z,98177.19
2022-11-07T09:08:15.982Z,98168.34
2022-11-07T09:10:46.251Z,98176.19
2022-11-07T09:13:17.041Z,98176.81
2022-11-07T09:15:51.747Z,98174.28
2022-11-07T09:18:22.622Z,98185.59
2022-11-07T09:20:52.980Z,98182.31
2022-11-07T09:23:23.698Z,98181.75
2022-11-07T09:25:53.727Z,98184.56
2022-11-07T09:28:23.860Z,98178.19
2022-11-07T09:31:00.833Z,98192.63
2022-11-07T09:33:31.332Z,98188.38
2022-11-07T09:36:02.912Z,98202.81
2022-11-07T09:38:33.909Z,98196.69
2022-11-07T09:41:13.267Z,98195.00
2022-11-07T09:44:16.900Z,98198.91
2022-11-07T09:47:00.460Z,98201.47
2022-11-07T09:49:39.200Z,98198.09
2022-11-07T09:52:19.927Z,98199.38
2022-11-07T09:54:56.781Z,98204.69
2022-11-07T09:57:36.582Z,98201.97
2022-11-07T10:00:11.433Z,98198.38
2022-11-07T10:02:48.133Z,98196.94
2022-11-07T10:05:21.648Z,98194.03
2022-11-07T10:08:06.312Z,98202.13
2022-11-07T10:10:47.047Z,98200.50
2022-11-07T10:13:56.122Z,98203.47
2022-11-07T10:16:43.420Z,98199.09
2022-11-07T10:19:36.797Z,98194.97
2022-11-07T10:22:26.732Z,98201.69
2022-11-07T10:25:24.239Z,98195.44
2022-11-07T10:28:11.375Z,98201.69
2022-11-07T10:30:42.145Z,98205.16
2022-11-07T10:33:30.567Z,98191.63
2022-11-07T10:36:14.150Z,98195.44
2022-11-07T10:38:46.124Z,98192.28
2022-11-07T10:41:20.058Z,98196.06
2022-11-07T10:43:55.343Z,98191.41
2022-11-07T10:46:36.619Z,98194.69
2022-11-07T10:49:19.919Z,98179.75
2022-11-07T10:51:53.698Z,98175.59
2022-11-07T10:54:29.981Z,98167.72
2022-11-07T10:57:07.072Z,98165.97
2022-11-07T10:59:40.035Z,98166.19
2022-11-07T11:02:24.344Z,98158.16
2022-11-07T11:04:58.233Z,98145.13
2022-11-07T11:07:41.265Z,98156.97
2022-11-07T11:10:22.947Z,98154.06
2022-11-07T11:12:53.821Z,98151.91
2022-11-07T11:15:32.736Z,98150.13
2022-11-07T11:18:08.537Z,98149.56
2022-11-07T11:20:42.829Z,98150.13
2022-11-07T11:23:24.822Z,98147.97
2022-11-07T11:26:02.173Z,98143.63
2022-11-07T11:28:38.508Z,98146.97
2022-11-07T11:31:15.615Z,98140.03
2022-11-07T11:33:51.198Z,98149.72
2022-11-07T11:36:26.622Z,98151.91
2022-11-07T11:38:59.799Z,98149.81
2022-11-07T11:41:44.345Z,98155.34
2022-11-07T11:44:23.474Z,98153.66
2022-11-07T11:47:04.973Z,98152.13
2022-11-07T11:49:42.553Z,98147.69
2022-11-07T11:52:20.414Z,98147.03
2022-11-07T11:54:55.441Z,98149.22
2022-11-07T11:57:32.942Z,98150.44
2022-11-07T12:00:15.121Z,98146.50
2022-11-07T12:03:22.799Z,98147.31
2022-11-07T12:06:16.943Z,98156.44
2022-11-07T12:09:19.687Z,98152.22
2022-11-07T12:12:21.892Z,98155.00
2022-11-07T12:15:24.659Z,98154.94
2022-11-07T12:18:05.546Z,98151.47
2022-11-07T12:20:48.266Z,98155.06
2022-11-07T12:23:34.557Z,98147.91
2022-11-07T12:26:08.892Z,98145.50
2022-11-07T12:28:55.683Z,98145.69
2022-11-07T12:31:52.611Z,98140.78
2022-11-07T12:34:38.159Z,98145.41
2022-11-07T12:37:31.246Z,98137.31
2022-11-07T12:40:25.352Z,98135.13
2022-11-07T12:43:12.585Z,98126.56
2022-11-07T12:45:56.461Z,98126.56
2022-11-07T12:49:02.967Z,98125.03
2022-11-07T12:51:49.781Z,98122.03
2022-11-07T12:54:48.407Z,98120.81
2022-11-07T12:57:25.268Z,98122.09
2022-11-07T13:00:05.328Z,98119.13
2022-11-07T13:03:21.438Z,98119.66
2022-11-07T13:06:05.981Z,98110.72
2022-11-07T13:08:44.013Z,98115.78
2022-11-07T13:11:23.791Z,98120.31
2022-11-07T13:14:11.412Z,98114.97
2022-11-07T13:16:54.991Z,98121.63
2022-11-07T13:19:33.609Z,98114.13
2022-11-07T13:22:08.017Z,98120.19
2022-11-07T13:24:52.799Z,98123.66
2022-11-07T13:27:26.840Z,98116.06
2022-11-07T13:29:56.906Z,98109.03
2022-11-07T13:32:27.433Z,98112.97
2022-11-07T13:35:03.690Z,98103.88
2022-11-07T13:46:50.323Z,98109.66
2022-11-07T13:49:28.106Z,98109.34
2022-11-07T13:52:10.276Z,98114.59
2022-11-07T13:54:50.795Z,98112.91
2022-11-07T13:57:28.670Z,98107.56
2022-11-07T14:00:05.226Z,98104.97
2022-11-07T14:02:52.261Z,98103.78
2022-11-07T14:05:27.179Z,98109.28
2022-11-07T14:08:06.913Z,98108.03
2022-11-07T14:10:46.430Z,98108.19
2022-11-07T14:13:24.339Z,98109.78
2022-11-07T14:15:58.171Z,98110.34
2022-11-07T14:18:31.705Z,98117.25
2022-11-07T14:21:04.207Z,98125.69
2022-11-07T14:23:36.845Z,98125.22
2022-11-07T14:26:20.920Z,98114.78
2022-11-07T14:28:51.859Z,98121.78
2022-11-07T14:31:29.417Z,98117.38
2022-11-07T14:34:03.700Z,98110.97
2022-11-07T14:36:35.251Z,98112.88
2022-11-07T14:39:15.383Z,98106.34
2022-11-07T14:41:48.225Z,98110.63
2022-11-07T14:44:28.525Z,98112.31
2022-11-07T14:47:08.555Z,98116.13
2022-11-07T14:49:44.509Z,98118.06
2022-11-07T14:52:23.363Z,98121.28
2022-11-07T14:55:05.878Z,98120.47
2022-11-07T14:57:41.020Z,98116.00
2022-11-07T15:00:18.279Z,98126.38
2022-11-07T15:02:52.425Z,98122.63
2022-11-07T15:05:29.267Z,98114.63
2022-11-07T15:08:02.595Z,98110.13
2022-11-07T15:10:41.284Z,98118.28
2022-11-07T15:13:28.028Z,98114.66
2022-11-07T15:16:06.729Z,98118.09
2022-11-07T15:18:44.219Z,98111.34
2022-11-07T15:21:29.856Z,98108.81
2022-11-07T15:24:00.542Z,98124.66
2022-11-07T15:26:37.224Z,98115.69
2022-11-07T15:29:23.520Z,98119.31
2022-11-07T15:31:53.699Z,98115.03
2022-11-07T15:34:52.550Z,98113.16
2022-11-07T15:37:23.485Z,98115.13
2022-11-07T15:39:53.794Z,98116.97
2022-11-07T15:42:26.432Z,98119.88
2022-11-07T15:44:56.572Z,98122.00
2022-11-07T15:47:26.608Z,98119.59
2022-11-07T15:49:56.672Z,98121.84
2022-11-07T15:52:26.696Z,98119.81
2022-11-07T15:54:56.717Z,98131.16
2022-11-07T15:57:29.454Z,98127.31
2022-11-07T15:59:59.575Z,98125.22
2022-11-07T16:02:30.153Z,98125.66
2022-11-07T16:05:00.308Z,98114.28
2022-11-07T16:07:30.327Z,98117.06
2022-11-07T16:10:00.365Z,98110.81
2022-11-07T16:12:32.935Z,98110.59
2022-11-07T16:15:03.580Z,98105.66
2022-11-07T16:17:34.625Z,98106.63
2022-11-07T16:20:04.666Z,98107.19
2022-11-07T16:22:34.783Z,98105.38
2022-11-07T16:25:10.103Z,98108.69
2022-11-07T16:27:52.581Z,98107.44
2022-11-07T16:30:23.688Z,98113.69
2022-11-07T16:32:53.761Z,98111.66
2022-11-07T16:35:24.080Z,98108.25
2022-11-07T16:37:54.209Z,98112.56
2022-11-07T16:40:24.439Z,98114.03
2022-11-07T16:42:57.061Z,98115.50
2022-11-07T16:45:27.122Z,98115.50
2022-11-07T16:47:57.139Z,98119.13
2022-11-07T16:50:27.144Z,98115.16
2022-11-07T16:52:57.279Z,98123.31
2022-11-07T16:55:27.296Z,98122.81
2022-11-07T16:58:00.619Z,98120.59
2022-11-07T17:00:30.986Z,98124.66
2022-11-07T17:03:01.120Z,98130.28
2022-11-07T17:05:31.343Z,98129.88
2022-11-07T17:08:03.835Z,98127.28
2022-11-07T17:10:33.898Z,98130.34
2022-11-07T17:13:06.624Z,98127.19
2022-11-07T17:15:36.733Z,98126.56
2022-11-07T17:18:08.417Z,98121.00
2022-11-07T17:20:50.893Z,98125.66
2022-11-07T17:23:25.476Z,98125.84
2022-11-07T17:25:59.716Z,98121.75
2022-11-07T17:28:32.618Z,98122.88
2022-11-07T17:31:02.752Z,98118.69
2022-11-07T17:33:32.862Z,98123.94
2022-11-07T17:36:03.081Z,98122.22
2022-11-07T17:38:33.134Z,98125.53
2022-11-07T17:41:17.260Z,98120.34
2022-11-07T17:43:51.670Z,98127.19
2022-11-07T17:46:26.263Z,98131.31
2022-11-07T17:48:57.577Z,98132.81
2022-11-07T17:51:28.607Z,98136.06
2022-11-07T17:54:00.957Z,98134.31
2022-11-07T17:56:33.861Z,98129.94
2022-11-07T17:59:09.983Z,98139.59
2022-11-07T18:01:41.980Z,98144.84
2022-11-07T18:04:14.713Z,98141.34
2022-11-07T18:06:46.317Z,98132.22
2022-11-07T18:09:18.369Z,98144.56
2022-11-07T18:11:48.541Z,98146.31
2022-11-07T18:14:21.122Z,98148.00
2022-11-07T18:16:51.467Z,98146.31
2022-11-07T18:19:21.502Z,98135.81
2022-11-07T18:21:51.555Z,98140.19
2022-11-07T18:24:22.246Z,98137.81
2022-11-07T18:26:53.877Z,98139.59
2022-11-07T18:29:26.702Z,98130.72
2022-11-07T18:31:56.750Z,98139.59
2022-11-07T18:34:26.823Z,98135.03
2022-11-07T18:36:57.101Z,98137.41
2022-11-07T18:39:27.200Z,98131.38
2022-11-07T18:41:57.327Z,98131.25
2022-11-07T18:44:30.130Z,98138.72
2022-11-07T18:47:00.100Z,98130.47
2022-11-07T18:49:30.205Z,98126.38
2022-11-07T18:52:00.490Z,98130.50
2022-11-07T18:54:30.649Z,98127.06
2022-11-07T18:57:00.746Z,98120.78
2022-11-07T18:59:34.330Z,98125.00
2022-11-07T19:02:04.759Z,98120.34
2022-11-07T19:04:34.888Z,98121.03
2022-11-07T19:07:05.003Z,98123.94
2022-11-07T19:09:37.035Z,98123.03
2022-11-07T19:12:07.653Z,98116.88
2022-11-07T19:14:40.374Z,98118.72
2022-11-07T19:17:10.547Z,98125.25
2022-11-07T19:19:40.822Z,98123.13
2022-11-07T19:22:12.563Z,98123.06
2022-11-07T19:24:42.808Z,98121.00
2022-11-07T19:27:12.873Z,98126.84
2022-11-07T19:29:45.535Z,98126.41
2022-11-07T19:32:15.843Z,98127.50
2022-11-07T19:34:45.878Z,98125.94
2022-11-07T19:37:15.921Z,98128.53
2022-11-07T19:39:46.072Z,98132.81
2022-11-07T19:42:16.223Z,98124.47
2022-11-07T19:44:54.048Z,98130.03
2022-11-07T19:47:26.642Z,98123.91
2022-11-07T19:49:56.729Z,98126.75
2022-11-07T19:52:26.800Z,98128.34
2022-11-07T19:54:56.851Z,98125.47
2022-11-07T19:57:27.145Z,98125.38
2022-11-07T19:59:59.789Z,98124.16
2022-11-07T20:02:33.604Z,98131.56
2022-11-07T20:05:04.940Z,98132.22
2022-11-07T20:07:35.898Z,98127.84
2022-11-07T20:10:06.258Z,98133.19
2022-11-07T20:12:36.443Z,98139.56
2022-11-07T20:15:11.200Z,98136.75
2022-11-07T20:17:42.607Z,98140.38
2022-11-07T20:20:14.789Z,98142.44
2022-11-07T20:22:49.208Z,98143.72
2022-11-07T20:25:19.410Z,98141.19
2022-11-07T20:27:49.437Z,98146.41
2022-11-07T20:30:22.326Z,98143.09
2022-11-07T20:32:52.464Z,98143.88
2022-11-07T20:35:22.610Z,98140.56
2022-11-07T20:37:52.832Z,98136.44
2022-11-07T20:40:29.015Z,98136.16
2022-11-07T20:43:00.543Z,98140.75
2022-11-07T20:45:33.197Z,98146.00
2022-11-07T20:48:03.540Z,98152.63
2022-11-07T20:50:35.531Z,98148.38
2022-11-07T20:53:05.927Z,98149.78
2022-11-07T20:55:42.659Z,98153.28
2022-11-07T20:58:13.628Z,98157.38
2022-11-07T21:00:47.203Z,98156.13
2022-11-07T21:03:18.591Z,98154.41
2022-11-07T21:05:48.943Z,98151.25
2022-11-07T21:08:19.131Z,98155.06
2022-11-07T21:10:52.653Z,98156.50
2022-11-07T21:13:23.037Z,98163.44
2022-11-07T21:15:55.805Z,98160.13
2022-11-07T21:18:26.061Z,98169.16
2022-11-07T21:20:56.825Z,98169.81
2022-11-07T21:23:27.023Z,98162.81
2022-11-07T21:25:58.533Z,98160.00
2022-11-07T21:28:29.003Z,98157.16
2022-11-07T21:31:07.651Z,98164.56
2022-11-07T21:33:37.722Z,98170.41
2022-11-07T21:36:13.311Z,98162.03
2022-11-07T21:38:44.847Z,98172.47
2022-11-07T21:41:16.216Z,98167.28
2022-11-07T21:43:46.916Z,98171.69
2022-11-07T21:46:23.368Z,98162.84
2022-11-07T21:48:54.456Z,98158.41
2022-11-07T21:51:26.537Z,98162.69
2022-11-07T21:53:57.998Z,98150.81
2022-11-07T21:56:31.201Z,98153.94
2022-11-07T21:59:04.253Z,98146.03
2022-11-07T22:01:38.968Z,98148.88
2022-11-07T22:04:12.956Z,98148.28
2022-11-07T22:06:46.368Z,98142.09
2022-11-07T22:09:19.854Z,98139.25
2022-11-07T22:11:50.088Z,98151.41
2022-11-07T22:14:23.045Z,98152.22
2022-11-07T22:16:58.613Z,98149.50
2022-11-07T22:19:29.466Z,98144.91
2022-11-07T22:21:59.552Z,98141.00
2022-11-07T22:24:29.917Z,98133.09
2022-11-07T22:27:01.261Z,98134.00
2022-11-07T22:29:32.177Z,98123.75
2022-11-07T22:32:05.160Z,98118.22
2022-11-07T22:34:35.157Z,98120.09
2022-11-07T22:37:05.211Z,98122.63
2022-11-07T22:39:35.208Z,98109.03
2022-11-07T22:42:08.756Z,98110.63
2022-11-07T22:44:38.796Z,98099.91
2022-11-07T22:47:11.469Z,98110.34
2022-11-07T22:49:42.614Z,98104.63
2022-11-07T22:52:12.687Z,98104.47
2022-11-07T22:54:43.153Z,98107.63
2022-11-07T22:57:17.701Z,98099.41
2022-11-07T22:59:48.061Z,98098.94
2022-11-07T23:02:20.802Z,98101.00
2022-11-07T23:04:51.427Z,98102.41
2022-11-07T23:07:21.455Z,98097.50
2022-11-07T23:09:53.508Z,98101.78
2022-11-07T23:12:25.455Z,98106.16
2022-11-07T23:14:58.042Z,98110.28
2022-11-07T23:17:30.878Z,98112.34
2022-11-07T23:20:00.880Z,98105.69
2022-11-07T23:22:32.454Z,98106.66
2022-11-07T23:25:02.956Z,98097.00
2022-11-07T23:27:33.145Z,98096.69
2022-11-07T23:30:03.136Z,98095.25
2022-11-07T23:32:35.752Z,98096.53
2022-11-07T23:35:05.790Z,98092.28
2022-11-07T23:37:35.855Z,98092.25
2022-11-07T23:40:06.288Z,98087.88
2022-11-07T23:42:36.335Z,98083.44
2022-11-07T23:45:19.410Z,98089.91
2022-11-07T23:48:04.493Z,98081.38
2022-11-07T23:50:47.007Z,98090.06
2022-11-07T23:53:29.281Z,98093.38
2022-11-07T23:55:59.291Z,98088.94
2022-11-07T23:58:53.862Z,98087.81
